Time;durP1;ratioP1;P1;durP2;ratioP2;P2;SDS_P1;SDS_P2;PMS_P1;PMS_P2;Temp;Humidity;BMP_temperature;BMP_pressure;BME280_temperature;BME280_humidity;BME280_pressure;Samples;Min_cycle;Max_cycle;Signal;HPM_P1;HPM_P2
2024/02/03 00:00:19;;;;;;;16.10;6.70;;;;;;;2.89;65.66;99049.79;106257;1257;95598;-74
2024/02/03 00:03:05;;;;;;;17.00;7.80;;;;;;;2.89;65.53;99045.77;105481;1257;108292;-75
2024/02/03 00:05:32;;;;;;;14.90;6.70;;;;;;;2.89;65.45;99049.11;105965;1256;95173;-77
2024/02/03 00:07:58;;;;;;;15.90;7.00;;;;;;;2.89;65.66;99050.31;105210;1259;95307;-76
2024/02/03 00:10:25;;;;;;;14.40;6.80;;;;;;;2.88;65.47;99044.06;105287;1256;95270;-76
2024/02/03 00:12:51;;;;;;;;;;;;;;;2.86;65.53;99034.52;105610;1257;95249;-75
2024/02/03 00:15:19;;;;;;;14.50;6.70;;;;;;;2.83;65.57;99032.73;105918;1259;95397;-75
2024/02/03 00:17:45;;;;;;;10.90;5.50;;;;;;;2.81;65.61;99026.14;106107;1256;95265;-76
2024/02/03 00:20:12;;;;;;;13.20;6.80;;;;;;;2.80;65.58;99031.98;105962;1257;95231;-75
2024/02/03 00:22:38;;;;;;;;;;;;;;;2.78;65.67;99029.25;104841;1260;95301;-75
2024/02/03 00:25:05;;;;;;;15.10;7.40;;;;;;;2.76;65.98;99024.77;106204;1258;95355;-75
2024/02/03 00:27:31;;;;;;;17.10;7.20;;;;;;;2.74;65.86;99023.48;105761;1256;96284;-75
2024/02/03 00:29:58;;;;;;;18.20;7.10;;;;;;;2.73;66.20;99020.87;105608;1259;96177;-76
2024/02/03 00:32:24;;;;;;;18.10;7.20;;;;;;;2.72;65.78;99028.80;108202;1256;93786;-75
2024/02/03 00:34:50;;;;;;;14.10;7.00;;;;;;;2.72;65.97;99024.95;105369;1259;95264;-76
2024/02/03 00:37:17;;;;;;;14.70;7.00;;;;;;;2.72;66.26;99016.70;106040;1254;95246;-75
2024/02/03 00:39:44;;;;;;;13.30;6.40;;;;;;;2.73;66.03;99014.56;105808;1257;95813;-75
2024/02/03 00:42:10;;;;;;;;;;;;;;;2.73;66.13;99001.63;107316;1256;95176;-76
2024/02/03 00:44:38;;;;;;;12.80;6.30;;;;;;;2.71;66.03;98990.11;105323;1257;95311;-77
2024/02/03 00:47:05;;;;;;;14.40;6.50;;;;;;;2.72;66.00;98983.08;106794;1256;95243;-75
2024/02/03 00:49:32;;;;;;;11.70;6.10;;;;;;;2.73;66.13;98987.80;105683;1258;95246;-77
2024/02/03 00:51:58;;;;;;;;;;;;;;;2.74;66.48;98981.96;106237;1257;95169;-76
2024/02/03 00:54:25;;;;;;;10.90;5.20;;;;;;;2.74;66.59;98969.52;106573;1259;107647;-75
2024/02/03 00:56:51;;;;;;;11.60;6.20;;;;;;;2.76;66.47;98955.25;108336;1255;93121;-75
2024/02/03 00:59:17;;;;;;;15.20;6.30;;;;;;;2.78;66.50;98943.77;108014;1257;94799;-76
2024/02/03 01:01:44;;;;;;;11.30;5.90;;;;;;;2.82;66.49;98933.48;105297;1260;96208;-75
2024/02/03 01:04:11;;;;;;;12.60;5.80;;;;;;;2.85;66.41;98924.05;105863;1260;107462;-75
2024/02/03 01:06:37;;;;;;;;;;;;;;;2.88;66.89;98933.35;105213;1258;95241;-77
2024/02/03 01:09:04;;;;;;;14.40;5.80;;;;;;;2.89;66.74;98939.99;107907;1256;94360;-76
2024/02/03 01:11:31;;;;;;;11.90;5.30;;;;;;;2.93;66.90;98948.75;106102;1257;95342;-76
2024/02/03 01:13:57;;;;;;;11.60;5.30;;;;;;;2.96;66.92;98951.23;105805;1259;95245;-76
2024/02/03 01:16:24;;;;;;;;;;;;;;;3.01;67.24;98957.71;105704;1258;95256;-76
2024/02/03 01:18:50;;;;;;;12.70;5.40;;;;;;;3.03;67.24;98954.11;105528;1259;95154;-76
2024/02/03 01:21:17;;;;;;;;;;;;;;;3.07;67.38;98954.64;106159;1255;96249;-74
2024/02/03 01:23:44;;;;;;;9.00;4.60;;;;;;;3.08;67.23;98951.77;107837;1256;95231;-76
2024/02/03 01:26:11;;;;;;;13.00;5.10;;;;;;;3.12;67.12;98951.96;105657;1260;95269;-76
2024/02/03 01:28:37;;;;;;;9.40;5.70;;;;;;;3.15;67.22;98946.91;107585;1254;96529;-76
2024/02/03 01:31:04;;;;;;;8.10;4.60;;;;;;;3.19;67.37;98947.66;106091;1257;97907;-76
2024/02/03 01:33:31;;;;;;;;;;;;;;;3.23;67.49;98948.00;105422;1258;97544;-76
2024/02/03 01:35:58;;;;;;;10.70;5.30;;;;;;;3.27;67.75;98940.98;106440;1257;96597;-77
2024/02/03 01:38:24;;;;;;;7.80;4.30;;;;;;;3.33;67.74;98926.16;108221;1255;96517;-74
2024/02/03 01:40:51;;;;;;;7.80;4.90;;;;;;;3.39;67.91;98909.77;105151;1271;96548;-76
2024/02/03 01:43:17;;;;;;;12.00;5.40;;;;;;;3.44;67.76;98905.84;105298;1260;96565;-75
2024/02/03 01:45:43;;;;;;;8.90;4.70;;;;;;;3.49;67.71;98900.73;106005;1257;96540;-77
2024/02/03 01:48:33;;;;;;;11.20;5.60;;;;;;;3.52;67.87;98897.04;107933;1255;94885;-76
2024/02/03 01:50:59;;;;;;;16.40;7.10;;;;;;;3.59;67.73;98896.05;106377;1257;97124;-77
2024/02/03 01:53:26;;;;;;;17.70;7.60;;;;;;;3.65;68.14;98891.55;106900;1256;97544;-74
2024/02/03 01:55:53;;;;;;;12.10;6.80;;;;;;;3.74;68.27;98889.55;106466;1257;96606;-77
2024/02/03 01:58:20;;;;;;;11.60;6.10;;;;;;;3.84;68.65;98881.55;105263;1259;96671;-76
2024/02/03 02:00:48;;;;;;;12.20;6.50;;;;;;;3.99;69.17;98883.47;107769;1256;94997;-75
2024/02/03 02:03:15;;;;;;;10.70;6.00;;;;;;;4.11;69.55;98881.30;105963;1257;96600;-75
2024/02/03 02:05:44;;;;;;;13.00;6.30;;;;;;;4.22;69.39;98869.73;107131;1257;96543;-75
2024/02/03 02:08:11;;;;;;;10.30;6.40;;;;;;;4.29;69.65;98866.89;105452;1267;97508;-76
2024/02/03 02:10:38;;;;;;;10.90;6.50;;;;;;;4.36;69.82;98866.35;107618;1258;97566;-77
2024/02/03 02:13:04;;;;;;;;;;;;;;;4.42;69.86;98856.57;105674;1259;96682;-75
2024/02/03 02:15:31;;;;;;;17.90;7.00;;;;;;;4.46;70.05;98854.09;105913;1258;96516;-76
2024/02/03 02:18:01;;;;;;;;;;;;;;;4.50;70.19;98856.52;106158;1260;96672;-76
2024/02/03 02:20:28;;;;;;;12.10;5.10;;;;;;;4.55;70.50;98856.64;106341;1257;107405;-76
2024/02/03 02:22:54;;;;;;;10.10;5.00;;;;;;;4.59;70.42;98856.60;105203;1260;97528;-76
2024/02/03 02:25:20;;;;;;;9.80;5.50;;;;;;;4.64;70.53;98855.13;107932;1254;94694;-76
2024/02/03 02:27:47;;;;;;;11.60;6.50;;;;;;;4.67;70.68;98852.67;105834;1260;96593;-75
2024/02/03 02:30:17;;;;;;;11.80;6.10;;;;;;;4.74;71.39;98857.78;105582;1259;97484;-76
2024/02/03 02:32:45;;;;;;;8.70;5.60;;;;;;;4.80;71.42;98857.84;105238;1260;97541;-76
2024/02/03 02:35:12;;;;;;;13.20;6.20;;;;;;;4.82;71.43;98854.22;106611;1258;96597;-75
2024/02/03 02:37:39;;;;;;;8.50;4.60;;;;;;;4.82;71.54;98847.52;107630;1257;97950;-75
2024/02/03 02:40:06;;;;;;;8.30;4.90;;;;;;;4.85;71.84;98852.27;106123;1261;96606;-75
2024/02/03 02:42:33;;;;;;;10.30;4.80;;;;;;;4.88;71.59;98853.89;106907;1258;97995;-75
2024/02/03 02:44:59;;;;;;;10.50;5.30;;;;;;;4.91;71.79;98851.57;105461;1256;96609;-76
2024/02/03 02:47:26;;;;;;;;;;;;;;;4.95;71.61;98850.73;105828;1257;96673;-75
2024/02/03 02:49:52;;;;;;;7.80;4.50;;;;;;;4.96;72.10;98845.58;105753;1259;110516;-75
2024/02/03 02:52:19;;;;;;;6.70;3.90;;;;;;;4.97;72.22;98846.58;106404;1257;96668;-75
2024/02/03 02:54:45;;;;;;;;;;;;;;;4.99;72.05;98846.13;105581;1260;96622;-76
2024/02/03 02:57:12;;;;;;;9.70;5.60;;;;;;;4.99;72.07;98839.80;107088;1256;97976;-76
2024/02/03 02:59:40;;;;;;;;;;;;;;;4.99;72.20;98838.37;104992;1263;97947;-76
2024/02/03 03:02:06;;;;;;;8.70;4.40;;;;;;;5.00;72.39;98842.03;107134;1257;96530;-76
2024/02/03 03:04:33;;;;;;;8.20;4.20;;;;;;;5.01;72.37;98852.15;107786;1258;96600;-76
2024/02/03 03:06:59;;;;;;;10.10;5.00;;;;;;;5.04;72.54;98846.22;106974;1257;96571;-76
2024/02/03 03:09:26;;;;;;;8.90;5.00;;;;;;;5.08;72.71;98844.80;105762;1256;96622;-76
2024/02/03 03:11:53;;;;;;;11.00;5.10;;;;;;;5.10;72.51;98841.66;106519;1257;96565;-75
2024/02/03 03:14:19;;;;;;;8.90;5.40;;;;;;;5.13;72.71;98836.04;106849;1258;108267;-75
2024/02/03 03:16:48;;;;;;;10.90;4.70;;;;;;;5.17;72.71;98829.87;106409;1258;96552;-75
2024/02/03 03:19:14;;;;;;;8.60;5.00;;;;;;;5.19;72.64;98827.46;105396;1259;96622;-75
2024/02/03 03:21:41;;;;;;;8.00;4.30;;;;;;;5.22;72.81;98835.21;105413;1259;96688;-76
2024/02/03 03:24:08;;;;;;;10.50;5.60;;;;;;;5.25;72.98;98833.46;107110;1258;96615;-76
2024/02/03 03:26:40;;;;;;;;;;;;;;;5.27;72.82;98840.92;105652;1260;96594;-77
2024/02/03 03:29:07;;;;;;;9.50;4.70;;;;;;;5.28;72.83;98835.80;106469;1256;97525;-76
2024/02/03 03:31:34;;;;;;;8.90;4.10;;;;;;;5.28;72.90;98843.66;106600;1257;96559;-76
2024/02/03 03:34:00;;;;;;;9.70;4.90;;;;;;;5.31;72.93;98843.84;106242;1258;96617;-77
2024/02/03 03:36:27;;;;;;;8.40;4.70;;;;;;;5.35;72.94;98842.92;105334;1257;96603;-75
2024/02/03 03:38:53;;;;;;;9.90;5.20;;;;;;;5.36;72.93;98836.73;106938;1254;96503;-77
2024/02/03 03:41:20;;;;;;;10.60;4.80;;;;;;;5.36;72.94;98830.04;105849;1257;96592;-75
2024/02/03 03:43:48;;;;;;;;;;;;;;;5.39;72.99;98837.48;107114;1257;96558;-77
2024/02/03 03:46:15;;;;;;;12.60;5.10;;;;;;;5.39;73.03;98832.73;106601;1256;97673;-78
2024/02/03 03:48:41;;;;;;;10.00;4.60;;;;;;;5.41;72.81;98832.99;106441;1259;97124;-76
2024/02/03 03:51:08;;;;;;;7.70;4.50;;;;;;;5.42;72.95;98830.95;105877;1257;96629;-76
2024/02/03 03:53:34;;;;;;;;;;;;;;;5.43;73.03;98838.29;107085;1253;96619;-77
2024/02/03 03:56:01;;;;;;;6.10;3.80;;;;;;;5.44;73.13;98835.44;106405;1257;97628;-76
2024/02/03 03:58:27;;;;;;;9.10;4.80;;;;;;;5.46;73.19;98831.98;106649;1256;107529;-77
2024/02/03 04:00:54;;;;;;;;;;;;;;;5.47;73.16;98839.11;106150;1256;96590;-76
2024/02/03 04:03:20;;;;;;;8.60;4.90;;;;;;;5.48;73.53;98836.23;106557;1256;96628;-76
2024/02/03 04:05:47;;;;;;;8.10;4.30;;;;;;;5.51;73.44;98840.15;106474;1252;96685;-75
2024/02/03 04:08:13;;;;;;;10.50;4.80;;;;;;;5.53;73.30;98850.92;106354;1254;96594;-77
2024/02/03 04:10:40;;;;;;;;;;;;;;;5.54;73.23;98851.59;106108;1256;97886;-77
2024/02/03 04:13:06;;;;;;;9.70;5.30;;;;;;;5.53;73.30;98847.25;106774;1256;96519;-75
2024/02/03 04:15:33;;;;;;;5.80;3.70;;;;;;;5.53;73.27;98846.53;105770;1254;97908;-75
2024/02/03 04:17:59;;;;;;;;;;;;;;;5.54;73.55;98848.77;105873;1258;96841;-76
2024/02/03 04:20:26;;;;;;;11.10;5.10;;;;;;;5.54;73.52;98846.88;105999;1256;96621;-76
2024/02/03 04:22:52;;;;;;;8.00;5.10;;;;;;;5.54;73.64;98852.46;106029;1256;96603;-76
2024/02/03 04:25:19;;;;;;;10.00;5.60;;;;;;;5.54;73.64;98851.21;106938;1256;97659;-76
2024/02/03 04:27:45;;;;;;;8.40;6.00;;;;;;;5.57;73.69;98855.45;105869;1259;96577;-76
2024/02/03 04:30:12;;;;;;;;;;;;;;;5.58;73.61;98857.34;107617;1256;96571;-76
2024/02/03 04:32:52;;;;;;;8.60;4.70;;;;;;;5.58;73.70;98850.50;107026;1257;96526;-77
2024/02/03 04:35:19;;;;;;;6.90;4.20;;;;;;;5.59;73.88;98853.45;105819;1253;109978;-76
2024/02/03 04:37:45;;;;;;;8.10;4.80;;;;;;;5.59;73.75;98851.30;106273;1254;97438;-76
2024/02/03 04:40:12;;;;;;;10.00;6.00;;;;;;;5.60;73.63;98854.08;105398;1257;97915;-75
2024/02/03 04:42:39;;;;;;;11.00;5.80;;;;;;;5.61;73.60;98860.00;107371;1253;96609;-75
2024/02/03 04:45:06;;;;;;;10.50;6.10;;;;;;;5.62;73.78;98858.19;107074;1256;97944;-75
2024/02/03 04:47:33;;;;;;;11.70;6.50;;;;;;;5.63;73.78;98852.52;108568;1253;94490;-75
2024/02/03 04:50:00;;;;;;;6.60;4.50;;;;;;;5.64;73.80;98847.33;106833;1254;96875;-76
2024/02/03 04:52:27;;;;;;;8.20;5.30;;;;;;;5.66;73.81;98846.90;105873;1259;96673;-75
2024/02/03 04:54:53;;;;;;;;;;;;;;;5.68;73.89;98845.39;107013;1256;96671;-76
2024/02/03 04:57:20;;;;;;;7.60;5.10;;;;;;;5.67;73.86;98838.90;105525;1254;96589;-76
2024/02/03 04:59:46;;;;;;;;;;;;;;;5.68;73.85;98841.33;106280;1254;96701;-76
2024/02/03 05:02:13;;;;;;;10.20;5.00;;;;;;;5.68;73.97;98842.03;107040;1256;96411;-77
2024/02/03 05:04:39;;;;;;;11.00;5.80;;;;;;;5.69;73.99;98842.14;105523;1256;97335;-76
2024/02/03 05:07:06;;;;;;;9.60;4.90;;;;;;;5.70;74.10;98834.54;105543;1256;96693;-75
2024/02/03 05:09:32;;;;;;;;;;;;;;;5.71;74.00;98834.32;107025;1254;97519;-75
2024/02/03 05:11:59;;;;;;;10.90;5.20;;;;;;;5.69;74.13;98824.19;105964;1262;97541;-75
2024/02/03 05:14:25;;;;;;;;;;;;;;;5.71;74.05;98824.45;106201;1257;96651;-75
2024/02/03 05:16:51;;;;;;;9.40;5.30;;;;;;;5.72;74.17;98822.09;107851;1256;96370;-76
2024/02/03 05:19:18;;;;;;;;;;;;;;;5.73;74.26;98818.48;105937;1253;97271;-75
2024/02/03 05:21:45;;;;;;;6.90;3.90;;;;;;;5.75;74.39;98825.27;105609;1258;96673;-75
2024/02/03 05:24:12;;;;;;;7.00;4.80;;;;;;;5.76;74.34;98819.02;105562;1260;96597;-76
2024/02/03 05:26:38;;;;;;;11.00;5.00;;;;;;;5.77;74.38;98818.27;105297;1257;96554;-75
2024/02/03 05:29:05;;;;;;;;;;;;;;;5.78;74.24;98824.56;106191;1254;96589;-76
2024/02/03 05:31:31;;;;;;;8.40;4.50;;;;;;;5.76;74.28;98823.80;106379;1254;96619;-76
2024/02/03 05:33:57;;;;;;;7.50;5.20;;;;;;;5.76;74.41;98828.20;106879;1256;96584;-76
2024/02/03 05:36:24;;;;;;;8.00;4.90;;;;;;;5.77;74.54;98831.98;105419;1259;109964;-75
2024/02/03 05:38:50;;;;;;;;;;;;;;;5.81;74.46;98823.69;105258;1258;96642;-75
2024/02/03 05:41:17;;;;;;;6.30;4.70;;;;;;;5.81;74.61;98818.39;106956;1256;97967;-75
2024/02/03 05:43:43;;;;;;;8.30;5.50;;;;;;;5.83;74.71;98821.30;105922;1254;96606;-77
2024/02/03 05:46:10;;;;;;;7.70;4.50;;;;;;;5.84;74.63;98823.37;105685;1257;109866;-75
2024/02/03 05:48:36;;;;;;;8.00;5.00;;;;;;;5.86;74.76;98811.48;105953;1256;96590;-76
2024/02/03 05:51:03;;;;;;;10.30;5.40;;;;;;;5.86;74.77;98807.92;105838;1256;97910;-75
2024/02/03 05:53:35;;;;;;;9.00;5.20;;;;;;;5.87;74.89;98810.88;105521;1254;96705;-76
2024/02/03 05:56:05;;;;;;;9.30;5.20;;;;;;;5.87;74.68;98816.15;107086;1254;96553;-76
2024/02/03 05:58:31;;;;;;;8.40;4.40;;;;;;;5.87;74.89;98821.77;107265;1254;111098;-76
2024/02/03 06:00:57;;;;;;;;;;;;;;;5.89;75.03;98824.83;105395;1267;96547;-77
2024/02/03 06:03:24;;;;;;;8.20;4.00;;;;;;;5.89;74.79;98816.91;107371;1254;96586;-75
2024/02/03 06:05:52;;;;;;;7.50;4.50;;;;;;;5.90;74.93;98812.96;107300;1254;97540;-76
2024/02/03 06:08:39;;;;;;;7.70;4.70;;;;;;;5.91;74.87;98816.77;106036;1256;96581;-75
2024/02/03 06:11:06;;;;;;;8.50;4.70;;;;;;;5.88;74.81;98815.73;106529;1256;109785;-76
2024/02/03 06:13:32;;;;;;;10.40;5.90;;;;;;;5.85;75.04;98808.48;106085;1253;97921;-76
2024/02/03 06:15:58;;;;;;;;;;;;;;;5.83;75.04;98809.36;106760;1258;96701;-77
2024/02/03 06:18:25;;;;;;;7.80;4.20;;;;;;;5.80;75.24;98801.05;106713;1254;97658;-77
2024/02/03 06:20:52;;;;;;;9.80;5.20;;;;;;;5.79;75.44;98794.42;108061;1256;109494;-75
2024/02/03 06:23:18;;;;;;;;;;;;;;;5.80;75.82;98796.66;105704;1253;96689;-74
2024/02/03 06:25:44;;;;;;;12.90;7.90;;;;;;;5.80;75.83;98789.61;106790;1253;96686;-75
2024/02/03 06:28:11;;;;;;;12.60;6.20;;;;;;;5.84;75.76;98795.04;106318;1256;96666;-76
2024/02/03 06:30:37;;;;;;;16.30;7.60;;;;;;;5.86;75.71;98799.11;105663;1256;109069;-77
2024/02/03 06:33:04;;;;;;;;;;;;;;;5.89;75.92;98814.27;107896;1257;97286;-76
2024/02/03 06:35:31;;;;;;;17.30;7.20;;;;;;;5.89;76.00;98808.11;106097;1254;96618;-75
2024/02/03 06:37:58;;;;;;;12.10;6.10;;;;;;;5.91;76.03;98813.13;106832;1256;96590;-76
2024/02/03 06:40:25;;;;;;;14.70;6.70;;;;;;;5.93;75.97;98818.76;106285;1257;96587;-75
2024/02/03 06:42:54;;;;;;;10.90;5.70;;;;;;;5.94;76.19;98813.61;105219;1256;96686;-76
2024/02/03 06:45:21;;;;;;;12.00;6.30;;;;;;;5.95;76.13;98830.99;106081;1254;107392;-77
2024/02/03 06:47:47;;;;;;;10.00;6.10;;;;;;;5.95;76.17;98834.51;106309;1254;96631;-75
2024/02/03 06:50:14;;;;;;;;;;;;;;;5.94;76.34;98837.52;106102;1253;96590;-76
2024/02/03 06:52:40;;;;;;;11.10;7.20;;;;;;;5.93;76.33;98833.70;107862;1256;96587;-76
2024/02/03 06:55:07;;;;;;;11.40;7.40;;;;;;;5.94;76.26;98835.09;105786;1255;97921;-76
2024/02/03 06:57:34;;;;;;;10.30;6.00;;;;;;;5.95;76.49;98832.02;106332;1254;97810;-77
2024/02/03 07:00:00;;;;;;;;;;;;;;;5.96;76.61;98831.61;106511;1253;97687;-76
2024/02/03 07:02:27;;;;;;;8.50;5.50;;;;;;;5.99;76.53;98834.83;107470;1256;96616;-81
2024/02/03 07:04:53;;;;;;;;;;;;;;;6.04;76.40;98845.28;105981;1256;96592;-80
2024/02/03 07:07:20;;;;;;;8.60;5.90;;;;;;;6.07;76.62;98847.27;107350;1256;96538;-82
2024/02/03 07:09:46;;;;;;;11.70;6.00;;;;;;;6.09;76.60;98841.30;105985;1257;96603;-79
2024/02/03 07:12:13;;;;;;;10.20;6.30;;;;;;;6.12;76.36;98842.54;106241;1256;96680;-84
2024/02/03 07:14:39;;;;;;;;;;;;;;;6.14;76.38;98837.33;105549;1257;97219;-82
2024/02/03 07:17:06;;;;;;;8.60;5.70;;;;;;;6.14;76.34;98836.98;106548;1253;96587;-80
2024/02/03 07:19:32;;;;;;;10.20;6.00;;;;;;;6.17;76.47;98843.16;105899;1256;96595;-80
2024/02/03 07:21:59;;;;;;;9.50;4.30;;;;;;;6.19;76.44;98835.27;107239;1257;96571;-82
2024/02/03 07:24:25;;;;;;;;;;;;;;;6.21;76.59;98838.70;106043;1257;96596;-77
2024/02/03 07:26:52;;;;;;;10.70;5.20;;;;;;;6.22;76.47;98837.25;106433;1257;96568;-82
2024/02/03 07:29:18;;;;;;;12.10;6.50;;;;;;;6.24;76.61;98834.48;107435;1256;96606;-81
2024/02/03 07:31:44;;;;;;;;;;;;;;;6.25;76.53;98838.98;106994;1256;110299;-86
2024/02/03 07:34:11;;;;;;;12.90;5.80;;;;;;;6.25;76.37;98835.98;106100;1257;96580;-82
2024/02/03 07:36:39;;;;;;;8.00;4.60;;;;;;;6.29;76.53;98833.15;105572;1257;97534;-83
2024/02/03 07:39:08;;;;;;;8.80;6.10;;;;;;;6.30;76.58;98834.47;106903;1256;96533;-81
2024/02/03 07:41:35;;;;;;;7.30;4.60;;;;;;;6.32;76.37;98836.48;105815;1257;96622;-82
2024/02/03 07:44:01;;;;;;;7.60;4.70;;;;;;;6.34;76.49;98833.89;105731;1256;97949;-82
2024/02/03 07:46:27;;;;;;;;;;;;;;;6.36;76.65;98835.02;107112;1256;97040;-78
2024/02/03 07:48:54;;;;;;;6.50;4.40;;;;;;;6.37;76.79;98832.46;105811;1256;96603;-83
2024/02/03 07:51:21;;;;;;;9.60;4.90;;;;;;;6.40;76.71;98835.62;106089;1253;96645;-81
2024/02/03 07:53:47;;;;;;;;;;;;;;;6.44;76.68;98826.27;108498;1253;109879;-79
2024/02/03 07:56:14;;;;;;;15.90;4.30;;;;;;;6.44;76.61;98822.71;107192;1256;96578;-76
2024/02/03 07:58:40;;;;;;;;;;;;;;;6.47;76.79;98826.10;106155;1254;96588;-80
2024/02/03 08:01:06;;;;;;;12.30;6.80;;;;;;;6.50;76.84;98824.84;106286;1257;96593;-76
2024/02/03 08:03:33;;;;;;;8.70;5.10;;;;;;;6.54;76.65;98825.50;106246;1256;109550;-80
2024/02/03 08:06:00;;;;;;;16.40;8.80;;;;;;;6.58;76.75;98832.46;106883;1254;97487;-84
2024/02/03 08:08:27;;;;;;;12.60;6.70;;;;;;;6.63;76.83;98830.77;106583;1258;96600;-80
2024/02/03 08:10:53;;;;;;;8.60;5.60;;;;;;;6.67;76.74;98829.34;106067;1256;96618;-79
2024/02/03 08:13:20;;;;;;;;;;;;;;;6.69;76.46;98834.10;105506;1254;97950;-78
2024/02/03 08:15:46;;;;;;;5.10;3.40;;;;;;;6.70;76.52;98839.00;106304;1253;96629;-73
2024/02/03 08:18:13;;;;;;;;;;;;;;;6.71;76.45;98831.91;107290;1254;106070;-79
2024/02/03 08:20:39;;;;;;;10.30;5.50;;;;;;;6.72;76.50;98840.11;106617;1253;96620;-80
2024/02/03 08:23:06;;;;;;;;;;;;;;;6.74;76.40;98840.85;106578;1256;96607;-81
2024/02/03 08:25:33;;;;;;;10.20;6.20;;;;;;;6.75;76.33;98844.65;105937;1254;97799;-78
2024/02/03 08:27:59;;;;;;;7.40;4.70;;;;;;;6.79;76.31;98849.39;106350;1255;97334;-79
2024/02/03 08:30:26;;;;;;;7.20;5.10;;;;;;;6.81;76.31;98855.44;107338;1252;96482;-78
2024/02/03 08:32:52;;;;;;;;;;;;;;;6.83;76.38;98856.52;106557;1267;96552;-78
2024/02/03 08:35:19;;;;;;;5.90;3.60;;;;;;;6.85;76.29;98851.32;105878;1253;96606;-80
2024/02/03 08:37:46;;;;;;;6.90;3.80;;;;;;;6.89;76.31;98859.21;105719;1257;96664;-77
2024/02/03 08:40:13;;;;;;;;;;;;;;;6.92;76.18;98859.01;106410;1257;97414;-74
2024/02/03 08:42:40;;;;;;;5.10;3.40;;;;;;;6.94;76.17;98866.13;106096;1260;96690;-76
2024/02/03 08:45:07;;;;;;;6.40;3.70;;;;;;;6.96;76.15;98858.59;105810;1253;96568;-75
2024/02/03 08:47:34;;;;;;;6.50;3.50;;;;;;;7.00;76.20;98859.91;105976;1255;96586;-75
2024/02/03 08:50:01;;;;;;;6.00;3.50;;;;;;;7.04;76.02;98856.54;106780;1255;96676;-74
2024/02/03 08:52:28;;;;;;;7.50;4.00;;;;;;;7.08;76.10;98850.06;105702;1257;96616;-71
2024/02/03 08:54:54;;;;;;;5.50;3.30;;;;;;;7.14;76.01;98847.77;106767;1254;96581;-72
2024/02/03 08:57:21;;;;;;;4.10;3.40;;;;;;;7.20;75.96;98843.36;105957;1254;96558;-74
2024/02/03 08:59:50;;;;;;;8.50;3.10;;;;;;;7.25;75.90;98840.56;106032;1254;107600;-75
2024/02/03 09:02:17;;;;;;;6.50;3.20;;;;;;;7.31;75.75;98836.34;106774;1254;97592;-74
2024/02/03 09:04:43;;;;;;;5.90;3.70;;;;;;;7.40;75.77;98831.38;106601;1257;97113;-75
2024/02/03 09:07:10;;;;;;;7.70;3.80;;;;;;;7.46;75.74;98833.09;106071;1256;96698;-75
2024/02/03 09:09:36;;;;;;;6.20;3.40;;;;;;;7.52;75.51;98826.17;106220;1254;96510;-75
2024/02/03 09:12:03;;;;;;;6.00;3.70;;;;;;;7.58;75.51;98829.33;106027;1254;97236;-77
2024/02/03 09:14:30;;;;;;;10.70;4.10;;;;;;;7.64;75.44;98837.79;105935;1253;96507;-78
2024/02/03 09:16:56;;;;;;;5.60;3.40;;;;;;;7.70;75.19;98833.90;106026;1254;97943;-81
2024/02/03 09:19:23;;;;;;;;;;;;;;;7.74;75.20;98830.23;106337;1254;96549;-77
2024/02/03 09:21:50;;;;;;;6.60;3.80;;;;;;;7.78;74.91;98837.95;105718;1267;96590;-81
2024/02/03 09:24:16;;;;;;;;;;;;;;;7.83;75.02;98838.18;106151;1256;96684;-79
2024/02/03 09:26:43;;;;;;;4.70;3.30;;;;;;;7.86;74.89;98830.67;105478;1254;109929;-79
2024/02/03 09:29:10;;;;;;;7.00;3.30;;;;;;;7.93;74.85;98826.73;105784;1260;96573;-78
2024/02/03 09:31:36;;;;;;;5.30;3.60;;;;;;;7.98;74.70;98834.87;105992;1266;96582;-79
2024/02/03 09:34:05;;;;;;;;;;;;;;;8.02;74.48;98829.69;105276;1254;96505;-78
2024/02/03 09:36:33;;;;;;;5.50;2.50;;;;;;;8.05;74.31;98837.45;105793;1254;124428;-78
2024/02/03 09:39:00;;;;;;;6.20;3.90;;;;;;;8.09;73.91;98835.05;105641;1254;97927;-77
2024/02/03 09:41:28;;;;;;;5.50;3.50;;;;;;;8.11;73.79;98837.38;106203;1256;96594;-78
2024/02/03 09:43:55;;;;;;;10.40;4.60;;;;;;;8.12;73.60;98834.13;106164;1254;107331;-78
2024/02/03 09:46:22;;;;;;;9.80;5.90;;;;;;;8.13;73.67;98835.16;107967;1254;96581;-77
2024/02/03 09:48:48;;;;;;;8.70;4.40;;;;;;;8.12;73.35;98827.63;105895;1253;96625;-77
2024/02/03 09:51:15;;;;;;;9.00;4.30;;;;;;;8.10;73.34;98824.94;105410;1254;96593;-78
2024/02/03 09:53:47;;;;;;;6.60;3.70;;;;;;;8.09;73.29;98825.86;106357;1254;97547;-78
2024/02/03 09:56:13;;;;;;;7.60;5.10;;;;;;;8.08;73.09;98818.73;106098;1254;108259;-76
2024/02/03 09:58:40;;;;;;;5.30;4.00;;;;;;;8.07;72.99;98825.13;105383;1260;96572;-76
2024/02/03 10:01:09;;;;;;;10.90;5.60;;;;;;;8.08;73.16;98825.73;106378;1256;96637;-75
2024/02/03 10:03:35;;;;;;;11.60;4.30;;;;;;;8.11;73.04;98824.34;106116;1254;96571;-76
2024/02/03 10:06:03;;;;;;;6.40;4.40;;;;;;;8.13;73.06;98821.36;106815;1252;96602;-76
2024/02/03 10:08:30;;;;;;;9.60;4.70;;;;;;;8.18;73.05;98826.67;106577;1254;96693;-76
2024/02/03 10:10:56;;;;;;;7.90;3.30;;;;;;;8.22;73.15;98832.59;105453;1257;96677;-76
2024/02/03 10:13:26;;;;;;;7.30;3.90;;;;;;;8.23;72.63;98832.92;106009;1252;96587;-77
2024/02/03 10:16:01;;;;;;;11.00;4.50;;;;;;;8.22;72.72;98831.92;107740;1254;96594;-73
2024/02/03 10:18:32;;;;;;;9.50;4.20;;;;;;;8.21;72.64;98831.41;107252;1254;96511;-75
2024/02/03 10:21:00;;;;;;;9.60;5.20;;;;;;;8.17;72.69;98826.20;108241;1252;107313;-76
2024/02/03 10:23:27;;;;;;;6.90;4.60;;;;;;;8.17;72.75;98818.95;105838;1254;96680;-80
2024/02/03 10:26:00;;;;;;;5.20;3.70;;;;;;;8.17;72.64;98824.84;105283;1256;96591;-76
2024/02/03 10:28:27;;;;;;;7.80;4.30;;;;;;;8.13;72.64;98820.14;105565;1254;110241;-75
2024/02/03 10:30:57;;;;;;;6.40;4.00;;;;;;;8.11;72.73;98828.05;107197;1254;96606;-74
2024/02/03 10:33:28;;;;;;;9.70;4.20;;;;;;;8.08;72.73;98831.08;105749;1253;107437;-75
2024/02/03 10:35:55;;;;;;;7.80;3.60;;;;;;;8.04;72.69;98828.09;106972;1252;96615;-75
2024/02/03 10:38:22;;;;;;;7.10;4.00;;;;;;;8.03;72.89;98830.45;105705;1259;96667;-75
2024/02/03 10:40:49;;;;;;;6.90;4.20;;;;;;;8.02;72.90;98826.52;107003;1252;96587;-74
2024/02/03 10:43:22;;;;;;;7.70;4.30;;;;;;;7.98;73.16;98829.56;105896;1253;96619;-76
2024/02/03 10:45:56;;;;;;;8.90;4.30;;;;;;;7.94;73.29;98826.15;107744;1254;107480;-77
2024/02/03 10:48:26;;;;;;;6.90;4.40;;;;;;;7.89;73.20;98830.02;105674;1253;96661;-78
2024/02/03 10:50:59;;;;;;;6.70;4.10;;;;;;;7.83;73.56;98841.17;106966;1256;94904;-76
2024/02/03 10:53:29;;;;;;;6.60;4.30;;;;;;;7.76;73.81;98835.25;106028;1252;109887;-76
2024/02/03 10:56:03;;;;;;;7.10;4.40;;;;;;;7.68;74.06;98840.66;106572;1252;96564;-73
2024/02/03 10:58:31;;;;;;;11.00;5.80;;;;;;;7.61;74.47;98842.21;105708;1254;107582;-75
2024/02/03 11:03:52;;;;;;;;;;;;;;;;;;;;;
2024/02/03 11:06:30;;;;;;;;;;;;;;;7.50;74.99;98842.20;105691;1268;94250;-76
2024/02/03 11:09:28;;;;;;;8.50;4.80;;;;;;;7.46;75.30;98838.55;105235;1259;94323;-81
2024/02/03 11:12:01;;;;;;;6.20;4.70;;;;;;;7.45;75.53;98835.98;105717;1257;107133;-79
2024/02/03 11:18:42;;;;;;;11.80;5.90;;;;;;;7.44;75.67;98831.10;102825;1256;108509;-80
2024/02/03 11:21:10;;;;;;;9.60;5.70;;;;;;;7.46;75.94;98839.10;105317;1260;94389;-79
2024/02/03 11:23:45;;;;;;;9.90;5.90;;;;;;;7.47;76.18;98829.73;107781;1256;107097;-75
2024/02/03 11:26:14;;;;;;;11.40;6.10;;;;;;;7.49;76.17;98826.55;105340;1258;95660;-80
2024/02/03 11:28:45;;;;;;;12.50;7.70;;;;;;;7.53;76.09;98829.60;106935;1257;107557;-77
2024/02/03 11:31:35;;;;;;;16.90;7.90;;;;;;;7.59;76.04;98816.02;105437;1256;95270;-78
2024/02/03 11:34:27;;;;;;;11.80;7.50;;;;;;;7.66;75.95;98815.77;106720;1260;95352;-75
2024/02/03 11:36:56;;;;;;;12.60;7.20;;;;;;;7.71;76.00;98816.48;105121;1261;108642;-78
2024/02/03 11:39:35;;;;;;;13.30;7.90;;;;;;;7.76;75.90;98814.58;107054;1255;95297;-77
2024/02/03 11:42:09;;;;;;;14.90;7.20;;;;;;;7.80;75.83;98815.19;106074;1255;107274;-77
2024/02/03 11:44:57;;;;;;;12.00;7.20;;;;;;;7.84;75.96;98814.46;104954;1258;96113;-78
2024/02/03 11:47:26;;;;;;;14.70;9.20;;;;;;;7.86;75.95;98809.33;105154;1258;95348;-78
2024/02/03 11:49:54;;;;;;;10.50;6.50;;;;;;;7.89;75.80;98808.25;105793;1254;108511;-76